Time;durP1;ratioP1;P1;durP2;ratioP2;P2;SDS_P1;SDS_P2;PMS_P1;PMS_P2;Temp;Humidity;BMP_temperature;BMP_pressure;BME280_temperature;BME280_humidity;BME280_pressure;Samples;Min_cycle;Max_cycle;Signal;HPM_P1;HPM_P2
2021/05/15 00:00:46;;;;;;;4.73;1.43;;;13.70;92.00;;;;;;5088344;28;20201;-72
2021/05/15 00:03:12;;;;;;;2.70;1.97;;;13.60;91.90;;;;;;5104693;28;20189;-71
2021/05/15 00:05:38;;;;;;;2.10;1.73;;;13.50;92.00;;;;;;5103367;28;20208;-71
2021/05/15 00:08:04;;;;;;;6.47;2.40;;;13.50;92.00;;;;;;5086580;28;20197;-71
2021/05/15 00:10:31;;;;;;;7.50;1.50;;;13.50;92.10;;;;;;5105399;28;20598;-71
2021/05/15 00:12:58;;;;;;;4.63;1.83;;;13.40;92.10;;;;;;5087184;28;20196;-71
2021/05/15 00:15:26;;;;;;;5.43;2.30;;;13.40;92.10;;;;;;5101479;28;20663;-71
2021/05/15 00:17:53;;;;;;;3.30;2.00;;;13.40;92.20;;;;;;5104764;28;20224;-71
2021/05/15 00:20:20;;;;;;;3.97;2.40;;;13.40;92.30;;;;;;5105362;28;20277;-71
2021/05/15 00:22:46;;;;;;;6.07;2.37;;;13.30;92.30;;;;;;5105454;28;20228;-71
2021/05/15 00:25:15;;;;;;;3.63;1.80;;;13.30;92.30;;;;;;5086998;28;20579;-71
2021/05/15 00:27:41;;;;;;;3.20;1.90;;;13.30;92.40;;;;;;5104550;28;20201;-71
2021/05/15 00:30:10;;;;;;;1.93;1.77;;;13.40;92.40;;;;;;5104969;28;20212;-71
2021/05/15 00:32:36;;;;;;;3.17;2.60;;;13.30;92.40;;;;;;5105148;28;20204;-71
2021/05/15 00:35:04;;;;;;;3.77;2.07;;;13.40;92.40;;;;;;5102534;28;20204;-71
2021/05/15 00:37:30;;;;;;;5.33;2.30;;;13.40;92.50;;;;;;5104848;28;20220;-72
2021/05/15 00:39:55;;;;;;;2.47;2.10;;;13.40;92.50;;;;;;5104547;28;20258;-72
2021/05/15 00:42:40;;;;;;;4.43;2.27;;;13.30;92.40;;;;;;5099007;28;20204;-72
2021/05/15 00:45:08;;;;;;;2.00;1.87;;;13.30;92.30;;;;;;5102462;28;20280;-71
2021/05/15 00:47:34;;;;;;;5.93;2.60;;;13.30;92.30;;;;;;5097517;28;20197;-71
2021/05/15 00:50:00;;;;;;;3.23;2.50;;;13.20;92.30;;;;;;5077329;28;20231;-71
2021/05/15 00:52:33;;;;;;;3.13;2.47;;;13.20;92.40;;;;;;5103002;28;20284;-71
2021/05/15 00:54:59;;;;;;;2.37;2.10;;;13.10;92.50;;;;;;5101809;28;20201;-71
2021/05/15 00:57:26;;;;;;;8.60;2.80;;;13.10;92.80;;;;;;5106302;28;20622;-71
2021/05/15 00:59:52;;;;;;;4.37;2.50;;;13.10;92.60;;;;;;5084955;28;20253;-71
2021/05/15 01:02:18;;;;;;;6.13;3.13;;;13.00;92.60;;;;;;5104614;28;20197;-71
2021/05/15 01:04:43;;;;;;;2.70;2.50;;;13.00;92.90;;;;;;5084483;28;20356;-71
2021/05/15 01:07:11;;;;;;;5.20;3.30;;;13.00;92.50;;;;;;5105826;28;20203;-71
2021/05/15 01:09:37;;;;;;;3.80;2.13;;;12.90;92.50;;;;;;5105284;28;20622;-71
2021/05/15 01:12:05;;;;;;;4.23;2.60;;;12.90;92.50;;;;;;5105367;28;20421;-71
2021/05/15 01:14:33;;;;;;;4.50;3.10;;;12.80;92.60;;;;;;5102134;28;20205;-71
2021/05/15 01:16:59;;;;;;;4.63;3.27;;;12.90;92.70;;;;;;5102158;28;20555;-71
2021/05/15 01:19:25;;;;;;;4.83;3.60;;;12.80;92.60;;;;;;5105259;28;20216;-71
2021/05/15 01:21:51;;;;;;;6.77;3.07;;;12.80;92.60;;;;;;5104806;28;20614;-71
2021/05/15 01:24:17;;;;;;;5.77;3.10;;;12.80;92.60;;;;;;5102502;28;20193;-71
2021/05/15 01:26:43;;;;;;;3.87;3.17;;;12.70;92.60;;;;;;5104393;28;20197;-71
2021/05/15 01:29:09;;;;;;;8.37;3.50;;;12.70;92.60;;;;;;5086641;28;20536;-71
2021/05/15 01:31:36;;;;;;;3.83;3.43;;;12.70;92.60;;;;;;5085129;28;20200;-71
2021/05/15 01:34:06;;;;;;;10.67;3.80;;;12.70;92.60;;;;;;5086097;28;20220;-71
2021/05/15 01:36:42;;;;;;;4.13;3.23;;;12.70;92.60;;;;;;5084070;28;20637;-71
2021/05/15 01:39:10;;;;;;;3.17;2.97;;;12.60;92.70;;;;;;5079632;28;20242;-71
2021/05/15 01:41:36;;;;;;;2.80;2.60;;;12.60;92.80;;;;;;5097643;28;20193;-71
2021/05/15 01:44:03;;;;;;;6.40;2.90;;;12.60;92.80;;;;;;5094221;28;20193;-72
2021/05/15 01:46:28;;;;;;;5.27;3.00;;;12.60;92.80;;;;;;5087210;28;20202;-71
2021/05/15 01:48:54;;;;;;;3.13;2.70;;;12.50;92.70;;;;;;5101462;28;20287;-71
2021/05/15 01:51:20;;;;;;;3.73;3.30;;;12.50;92.50;;;;;;5104406;28;20557;-71
2021/05/15 01:53:49;;;;;;;7.03;3.80;;;12.40;92.50;;;;;;5095777;28;20267;-71
2021/05/15 01:56:18;;;;;;;5.87;3.30;;;12.40;92.60;;;;;;5104486;28;20224;-71
2021/05/15 01:58:44;;;;;;;6.83;3.70;;;12.40;92.60;;;;;;5100956;28;20271;-71
2021/05/15 02:01:10;;;;;;;5.37;3.40;;;12.40;92.70;;;;;;5101740;28;20201;-71
2021/05/15 02:03:39;;;;;;;4.60;3.10;;;12.40;92.70;;;;;;5104215;28;20234;-71
2021/05/15 02:06:06;;;;;;;4.97;4.13;;;12.40;92.60;;;;;;5100717;28;20255;-71
2021/05/15 02:08:32;;;;;;;6.10;4.57;;;12.40;92.60;;;;;;5104551;28;20244;-71
2021/05/15 02:10:58;;;;;;;4.97;4.40;;;12.40;92.70;;;;;;5101595;28;20201;-71
2021/05/15 02:13:26;;;;;;;4.97;4.30;;;12.40;92.70;;;;;;5104893;28;20205;-71
2021/05/15 02:15:54;;;;;;;6.27;5.17;;;12.40;92.70;;;;;;5100826;28;20633;-71
2021/05/15 02:18:20;;;;;;;4.10;3.80;;;12.40;92.80;;;;;;5103976;28;20220;-71
2021/05/15 02:20:46;;;;;;;4.60;4.07;;;12.30;92.70;;;;;;5101186;28;20225;-71
2021/05/15 02:23:14;;;;;;;3.70;3.40;;;12.30;92.70;;;;;;5103699;28;20261;-71
2021/05/15 02:25:41;;;;;;;4.40;4.00;;;12.30;92.70;;;;;;5083749;28;20221;-71
2021/05/15 02:28:08;;;;;;;3.60;3.30;;;12.30;92.70;;;;;;5103505;28;20200;-71
2021/05/15 02:30:35;;;;;;;41.53;6.97;;;12.30;92.70;;;;;;5101828;28;20227;-72
2021/05/15 02:33:01;;;;;;;47.77;5.83;;;12.20;92.70;;;;;;5103576;28;20751;-71
2021/05/15 02:35:27;;;;;;;5.47;4.90;;;12.20;92.70;;;;;;5084068;28;20257;-71
2021/05/15 02:37:54;;;;;;;6.17;5.37;;;12.20;92.80;;;;;;5103061;28;20232;-71
2021/05/15 02:40:21;;;;;;;6.17;4.60;;;12.20;92.80;;;;;;5084386;28;20253;-71
2021/05/15 02:42:49;;;;;;;5.80;5.20;;;12.20;92.90;;;;;;5102987;28;20197;-71
2021/05/15 02:45:18;;;;;;;7.13;4.30;;;12.30;92.90;;;;;;5100087;28;20591;-71
2021/05/15 02:47:44;;;;;;;81.57;7.63;;;12.30;92.90;;;;;;5101383;28;20192;-71
2021/05/15 02:50:12;;;;;;;15.23;5.10;;;12.30;92.80;;;;;;5097526;28;20212;-71
2021/05/15 02:52:38;;;;;;;4.17;3.87;;;12.30;92.70;;;;;;5100581;28;20197;-71
2021/05/15 02:55:06;;;;;;;6.10;5.20;;;12.30;92.60;;;;;;5101942;28;20215;-71
2021/05/15 02:57:32;;;;;;;8.30;6.00;;;12.20;92.60;;;;;;5102462;28;20193;-71
2021/05/15 02:59:58;;;;;;;8.53;6.40;;;12.20;92.70;;;;;;5101368;28;20197;-71
2021/05/15 03:02:24;;;;;;;5.40;4.90;;;12.20;92.80;;;;;;5102352;28;20205;-71
2021/05/15 03:04:50;;;;;;;5.10;4.53;;;12.20;92.80;;;;;;5098160;28;20212;-71
2021/05/15 03:07:16;;;;;;;4.27;3.87;;;12.20;92.70;;;;;;5102015;28;20550;-71
2021/05/15 03:09:46;;;;;;;7.60;3.70;;;12.20;92.70;;;;;;5100186;28;20201;-71
2021/05/15 03:12:12;;;;;;;4.10;3.47;;;12.20;92.70;;;;;;5087824;28;20196;-71
2021/05/15 03:14:39;;;;;;;3.40;3.10;;;12.20;92.60;;;;;;5104469;28;20523;-71
2021/05/15 03:17:05;;;;;;;3.50;3.20;;;12.20;92.50;;;;;;5105747;28;20284;-71
2021/05/15 03:19:31;;;;;;;20.67;3.83;;;12.10;92.40;;;;;;5106705;28;20305;-71
2021/05/15 03:21:57;;;;;;;180.03;9.53;;;12.00;92.20;;;;;;5105616;28;20232;-71
2021/05/15 03:24:23;;;;;;;130.27;8.20;;;11.90;92.00;;;;;;5088913;28;20192;-71
2021/05/15 03:26:49;;;;;;;5.40;2.80;;;11.80;92.00;;;;;;5107278;28;20291;-71
2021/05/15 03:29:15;;;;;;;2.40;2.20;;;11.60;92.20;;;;;;5087274;28;20200;-71
2021/05/15 03:31:41;;;;;;;2.93;2.73;;;11.60;92.40;;;;;;5107784;28;20609;-71
2021/05/15 03:34:08;;;;;;;22.07;4.37;;;11.60;92.50;;;;;;5104751;28;20581;-71
2021/05/15 03:36:35;;;;;;;9.03;4.10;;;11.60;92.50;;;;;;5103963;28;20200;-71
2021/05/15 03:39:02;;;;;;;4.63;4.20;;;11.60;92.60;;;;;;5086016;28;20652;-71
2021/05/15 03:41:28;;;;;;;4.13;3.73;;;11.60;92.60;;;;;;5089527;28;20221;-71
2021/05/15 03:43:54;;;;;;;3.23;3.03;;;11.60;92.60;;;;;;5103000;28;20292;-71
2021/05/15 03:46:20;;;;;;;2.70;2.50;;;11.60;92.60;;;;;;5100796;28;20203;-71
2021/05/15 03:48:46;;;;;;;3.33;3.03;;;11.60;92.60;;;;;;5108257;28;20651;-71
2021/05/15 03:51:12;;;;;;;2.40;2.20;;;11.60;92.60;;;;;;5086546;28;20198;-72
2021/05/15 03:53:38;;;;;;;5.27;2.80;;;11.60;92.70;;;;;;5089015;28;20204;-72
2021/05/15 03:56:04;;;;;;;6.83;3.10;;;11.60;92.70;;;;;;5104595;28;20294;-72
2021/05/15 03:58:30;;;;;;;15.70;3.30;;;11.60;92.80;;;;;;5104038;28;20562;-72
2021/05/15 04:00:56;;;;;;;12.33;3.77;;;11.70;92.80;;;;;;5104019;28;20181;-72
2021/05/15 04:03:22;;;;;;;5.70;3.50;;;11.70;92.80;;;;;;5106026;28;20200;-71
2021/05/15 04:05:48;;;;;;;11.77;6.00;;;11.70;92.80;;;;;;5101858;28;20219;-71
2021/05/15 04:08:13;;;;;;;23.07;3.93;;;11.80;92.80;;;;;;5087048;28;20197;-71
2021/05/15 04:10:39;;;;;;;7.67;3.57;;;11.80;92.80;;;;;;5105997;28;20443;-71
2021/05/15 04:13:56;;;;;;;9.43;4.73;;;11.80;92.70;;;;;;5105804;28;20249;-71
2021/05/15 04:15:59;;;;;;;13.90;6.80;;;11.80;92.70;;;;;;5092317;28;20251;-71
2021/05/15 04:18:28;;;;;;;7.63;6.00;;;11.80;92.70;;;;;;5106274;28;20243;-71
2021/05/15 04:20:55;;;;;;;9.93;6.57;;;11.90;92.80;;;;;;5104462;28;20193;-71
2021/05/15 04:23:21;;;;;;;93.80;9.00;;;12.00;92.80;;;;;;5106134;28;20268;-71
2021/05/15 04:25:48;;;;;;;26.73;7.13;;;12.00;92.80;;;;;;5102587;28;20639;-71
2021/05/15 04:28:15;;;;;;;26.80;6.90;;;12.10;92.70;;;;;;5086420;28;20192;-71
2021/05/15 04:30:41;;;;;;;21.23;6.47;;;12.10;92.70;;;;;;5088604;28;20204;-71
2021/05/15 04:33:07;;;;;;;13.97;6.17;;;12.20;92.70;;;;;;5103757;28;20200;-71
2021/05/15 04:35:33;;;;;;;34.50;7.37;;;12.20;92.60;;;;;;5106724;28;20200;-72
2021/05/15 04:38:04;;;;;;;23.17;7.60;;;12.30;92.60;;;;;;5103351;28;20320;-72
2021/05/15 04:40:30;;;;;;;26.93;7.60;;;12.30;92.50;;;;;;5088240;28;20204;-72
2021/05/15 04:42:57;;;;;;;8.27;7.07;;;12.40;92.50;;;;;;5102702;28;20189;-72
2021/05/15 04:45:24;;;;;;;10.93;6.57;;;12.50;92.50;;;;;;5103245;28;20294;-72
2021/05/15 04:47:49;;;;;;;11.13;6.57;;;12.50;92.40;;;;;;5103339;28;20234;-72
2021/05/15 04:50:15;;;;;;;8.10;7.27;;;12.60;92.30;;;;;;5089127;28;20196;-73
2021/05/15 04:52:41;;;;;;;8.90;6.50;;;12.70;92.30;;;;;;5103123;28;20653;-73
2021/05/15 04:55:08;;;;;;;10.07;6.97;;;12.80;92.20;;;;;;5106721;28;20189;-73
2021/05/15 04:57:34;;;;;;;10.77;7.77;;;13.00;91.90;;;;;;5098665;28;20284;-72
2021/05/15 05:00:00;;;;;;;7.90;7.10;;;13.10;91.80;;;;;;5087361;28;20283;-72
2021/05/15 05:02:26;;;;;;;12.27;6.70;;;13.20;91.80;;;;;;5088289;28;20257;-72
2021/05/15 05:04:52;;;;;;;8.70;7.30;;;13.30;91.70;;;;;;5098896;28;20302;-72
2021/05/15 05:07:18;;;;;;;8.53;7.37;;;13.40;91.50;;;;;;5105670;28;20592;-72
2021/05/15 05:09:43;;;;;;;8.33;7.47;;;13.50;91.50;;;;;;5103729;28;20273;-72
2021/05/15 05:12:10;;;;;;;10.97;6.80;;;13.70;91.10;;;;;;5086358;28;20287;-72
2021/05/15 05:14:38;;;;;;;7.00;6.30;;;13.70;91.00;;;;;;5102349;28;20257;-72
2021/05/15 05:17:04;;;;;;;7.20;6.27;;;13.70;91.00;;;;;;5104758;28;20205;-72
2021/05/15 05:19:30;;;;;;;6.67;6.07;;;13.80;91.00;;;;;;5101890;28;20298;-73
2021/05/15 05:21:56;;;;;;;8.77;6.73;;;13.90;91.00;;;;;;5086734;28;20237;-73
2021/05/15 05:24:22;;;;;;;7.70;6.20;;;14.00;91.00;;;;;;5104158;28;20675;-72
2021/05/15 05:26:48;;;;;;;9.40;5.40;;;14.10;90.90;;;;;;5104483;28;20193;-72
2021/05/15 05:29:14;;;;;;;6.57;5.40;;;14.40;90.60;;;;;;5104821;28;20539;-72
2021/05/15 05:31:44;;;;;;;7.27;5.03;;;14.60;90.40;;;;;;5085807;28;20189;-72
2021/05/15 05:34:11;;;;;;;8.67;5.07;;;14.90;90.00;;;;;;5103417;28;20286;-72
2021/05/15 05:36:37;;;;;;;8.87;4.73;;;15.10;88.80;;;;;;5083945;28;20193;-73
2021/05/15 05:39:10;;;;;;;5.40;4.90;;;15.40;87.90;;;;;;5101956;28;20262;-72
2021/05/15 05:41:36;;;;;;;8.73;5.33;;;15.60;87.30;;;;;;5084319;28;20201;-72
2021/05/15 05:44:03;;;;;;;5.80;5.23;;;15.70;86.40;;;;;;5099859;28;20275;-72
2021/05/15 05:46:29;;;;;;;6.30;4.77;;;15.70;86.30;;;;;;5103832;28;20253;-72
2021/05/15 05:48:54;;;;;;;8.93;5.13;;;15.80;86.40;;;;;;5103725;28;20283;-72
2021/05/15 05:51:20;;;;;;;7.50;5.53;;;15.80;86.80;;;;;;5081977;28;20278;-72
2021/05/15 05:53:47;;;;;;;8.33;5.77;;;15.80;86.60;;;;;;5103333;28;20636;-72
2021/05/15 05:56:12;;;;;;;8.97;6.30;;;15.90;86.50;;;;;;5085974;28;20200;-72
2021/05/15 05:58:38;;;;;;;6.10;5.50;;;16.00;86.30;;;;;;5099108;28;20534;-72
2021/05/15 06:01:04;;;;;;;7.17;6.57;;;16.10;86.60;;;;;;5081969;28;20200;-72
2021/05/15 06:03:30;;;;;;;9.67;7.37;;;16.30;86.30;;;;;;5086484;28;20193;-72
2021/05/15 06:05:56;;;;;;;8.83;6.70;;;16.40;86.30;;;;;;5102032;28;20204;-72
2021/05/15 06:08:22;;;;;;;7.40;6.43;;;16.50;86.00;;;;;;5087152;28;20669;-72
2021/05/15 06:10:47;;;;;;;7.90;6.57;;;16.60;85.60;;;;;;5082296;28;20220;-72
2021/05/15 06:13:14;;;;;;;11.03;7.57;;;16.80;85.30;;;;;;5105086;28;20198;-72
2021/05/15 06:15:41;;;;;;;8.27;7.13;;;16.90;85.30;;;;;;5096263;28;20441;-72
2021/05/15 06:18:07;;;;;;;9.83;7.87;;;17.00;85.10;;;;;;5101495;28;20256;-72
2021/05/15 06:20:33;;;;;;;8.60;7.80;;;17.10;84.60;;;;;;5104594;28;20211;-72
2021/05/15 06:22:59;;;;;;;9.00;8.20;;;17.20;84.40;;;;;;5101344;28;20297;-72
2021/05/15 06:25:25;;;;;;;8.80;7.93;;;17.40;84.30;;;;;;5082429;28;20196;-72
2021/05/15 06:27:51;;;;;;;9.33;8.43;;;17.60;84.50;;;;;;5104263;28;20196;-72
2021/05/15 06:30:17;;;;;;;9.43;8.07;;;17.80;83.40;;;;;;5101728;28;20204;-72
2021/05/15 06:32:43;;;;;;;9.60;8.67;;;18.00;83.00;;;;;;5103786;28;20197;-72
2021/05/15 06:35:09;;;;;;;11.93;7.80;;;18.10;82.30;;;;;;5101619;28;20188;-72
2021/05/15 06:37:37;;;;;;;9.20;8.30;;;18.20;81.70;;;;;;5102802;28;20292;-72
2021/05/15 06:40:04;;;;;;;9.53;8.17;;;18.30;81.50;;;;;;5099929;28;20215;-72
2021/05/15 06:42:31;;;;;;;9.93;8.90;;;18.50;80.90;;;;;;5101672;28;20272;-72
2021/05/15 06:44:57;;;;;;;9.83;8.93;;;18.60;80.60;;;;;;5100297;28;20246;-72
2021/05/15 06:47:23;;;;;;;9.97;9.07;;;18.70;80.10;;;;;;5102371;28;20201;-72
2021/05/15 06:49:49;;;;;;;9.97;9.07;;;18.80;79.70;;;;;;5101940;28;20231;-72
2021/05/15 06:52:16;;;;;;;9.73;8.83;;;18.90;79.20;;;;;;5102064;28;20204;-72
2021/05/15 06:54:42;;;;;;;12.17;8.30;;;19.00;78.90;;;;;;5102446;28;20188;-72
2021/05/15 06:57:09;;;;;;;10.53;8.97;;;19.20;78.50;;;;;;5100104;28;20293;-72
2021/05/15 06:59:35;;;;;;;9.27;8.23;;;19.30;77.80;;;;;;5102419;28;20998;-72
2021/05/15 07:02:01;;;;;;;9.83;8.97;;;19.40;77.30;;;;;;5103749;28;20632;-73
2021/05/15 07:04:29;;;;;;;11.53;9.43;;;19.50;76.70;;;;;;5102824;28;20266;-73
2021/05/15 07:06:55;;;;;;;9.17;8.37;;;19.60;76.30;;;;;;5083268;28;20751;-72
2021/05/15 07:09:21;;;;;;;9.87;8.53;;;19.70;75.80;;;;;;5102542;28;20197;-72
2021/05/15 07:11:50;;;;;;;9.63;8.40;;;19.70;75.10;;;;;;5103105;28;20526;-72
2021/05/15 07:14:17;;;;;;;10.07;8.63;;;19.70;75.30;;;;;;5101265;28;20226;-72
2021/05/15 07:16:43;;;;;;;9.53;8.63;;;19.80;75.50;;;;;;5084120;28;20196;-72
2021/05/15 07:19:09;;;;;;;9.20;8.30;;;19.80;74.80;;;;;;5100413;28;20718;-72
2021/05/15 07:21:35;;;;;;;9.63;8.33;;;19.80;74.60;;;;;;5103486;28;20669;-72
2021/05/15 07:24:01;;;;;;;9.87;8.87;;;19.70;74.30;;;;;;5100527;28;20193;-72
2021/05/15 07:26:27;;;;;;;9.80;8.80;;;19.70;74.60;;;;;;5103552;28;20203;-72
2021/05/15 07:28:53;;;;;;;10.10;8.80;;;19.70;74.60;;;;;;5099664;28;20193;-72
2021/05/15 07:31:19;;;;;;;9.50;8.63;;;19.80;74.10;;;;;;5085883;28;20201;-72
2021/05/15 07:33:45;;;;;;;9.27;8.20;;;19.90;74.20;;;;;;5077331;28;20193;-72
2021/05/15 07:36:11;;;;;;;8.73;7.93;;;20.00;73.60;;;;;;5103270;28;20708;-72
2021/05/15 07:38:37;;;;;;;8.70;7.90;;;20.20;72.90;;;;;;5100542;28;20669;-72
2021/05/15 07:41:04;;;;;;;8.80;8.00;;;20.40;72.30;;;;;;5102175;28;20196;-72
2021/05/15 07:43:30;;;;;;;7.93;7.23;;;20.50;72.60;;;;;;5100209;28;20591;-72
2021/05/15 07:45:57;;;;;;;8.17;7.37;;;20.70;71.50;;;;;;5099353;28;20220;-72
2021/05/15 07:48:37;;;;;;;6.97;6.37;;;20.70;70.20;;;;;;5084567;28;20563;-72
2021/05/15 07:51:11;;;;;;;8.00;6.60;;;20.90;69.60;;;;;;5096625;28;20211;-72
2021/05/15 07:53:37;;;;;;;6.30;5.70;;;21.00;69.40;;;;;;5083572;28;20197;-72
2021/05/15 07:56:04;;;;;;;7.23;5.50;;;21.10;67.80;;;;;;5099527;28;20207;-72
2021/05/15 07:58:29;;;;;;;12.33;5.80;;;21.10;67.60;;;;;;5086561;28;20231;-72
2021/05/15 08:00:55;;;;;;;5.73;3.80;;;20.90;67.50;;;;;;5106195;28;20192;-72
2021/05/15 08:03:21;;;;;;;5.57;3.80;;;21.00;66.90;;;;;;5104544;28;20204;-72
2021/05/15 08:05:47;;;;;;;9.67;4.77;;;21.10;66.10;;;;;;5106935;28;20577;-72
2021/05/15 08:08:14;;;;;;;6.23;5.63;;;21.20;65.60;;;;;;5085881;28;20204;-72
2021/05/15 08:10:40;;;;;;;11.10;5.90;;;21.40;64.80;;;;;;5102910;28;20203;-72
2021/05/15 08:13:07;;;;;;;10.00;6.70;;;21.40;65.10;;;;;;5088942;28;20196;-72
2021/05/15 08:15:34;;;;;;;6.43;5.37;;;21.50;65.90;;;;;;5085703;28;20200;-72
2021/05/15 08:17:59;;;;;;;8.63;5.40;;;21.50;65.70;;;;;;5103094;28;20274;-72
2021/05/15 08:20:26;;;;;;;5.50;5.00;;;21.60;65.50;;;;;;5099319;28;20528;-72
2021/05/15 08:22:52;;;;;;;8.90;6.47;;;21.70;64.20;;;;;;5106524;28;20646;-72
2021/05/15 08:25:20;;;;;;;7.73;6.27;;;21.60;64.20;;;;;;5100351;28;20193;-72
2021/05/15 08:27:52;;;;;;;6.97;6.27;;;21.60;64.50;;;;;;5106599;28;20192;-72
2021/05/15 08:30:20;;;;;;;6.90;6.03;;;21.70;64.90;;;;;;5099553;28;20193;-72
2021/05/15 08:32:50;;;;;;;6.83;6.10;;;21.70;63.30;;;;;;5106287;28;20203;-72
2021/05/15 08:35:16;;;;;;;7.83;6.57;;;21.60;63.00;;;;;;5085542;28;20283;-72
2021/05/15 08:37:42;;;;;;;6.80;5.90;;;21.60;62.70;;;;;;5102807;28;20189;-72
2021/05/15 08:40:09;;;;;;;6.63;6.03;;;21.50;64.40;;;;;;5106205;28;20216;-73
2021/05/15 08:42:39;;;;;;;8.07;6.03;;;21.50;63.50;;;;;;5084974;28;20280;-72
2021/05/15 08:45:10;;;;;;;7.60;5.83;;;21.60;63.70;;;;;;5083613;28;20253;-72
2021/05/15 08:47:38;;;;;;;7.27;6.07;;;21.90;63.90;;;;;;5081642;28;20188;-72
2021/05/15 08:50:16;;;;;;;7.83;7.00;;;22.20;63.70;;;;;;5084244;28;20196;-73
2021/05/15 08:52:45;;;;;;;8.17;6.17;;;22.40;63.20;;;;;;5102420;28;20207;-73
2021/05/15 08:55:15;;;;;;;9.10;6.87;;;22.40;62.80;;;;;;5087456;28;20609;-73
2021/05/15 08:57:41;;;;;;;7.53;6.73;;;22.40;61.50;;;;;;5102752;28;20610;-73
2021/05/15 09:00:10;;;;;;;8.77;7.20;;;22.40;60.00;;;;;;5105642;28;20697;-73
2021/05/15 09:02:36;;;;;;;8.07;6.90;;;22.30;61.80;;;;;;5105502;28;20207;-72
2021/05/15 09:05:09;;;;;;;7.60;6.93;;;22.40;62.00;;;;;;5102375;28;20418;-72
2021/05/15 09:07:36;;;;;;;7.83;6.97;;;22.50;61.60;;;;;;5098015;28;20213;-72
2021/05/15 09:10:06;;;;;;;8.13;7.30;;;22.50;60.80;;;;;;5092065;28;20201;-72
2021/05/15 09:12:34;;;;;;;7.50;6.90;;;22.60;60.30;;;;;;5098857;28;20217;-72
2021/05/15 09:15:05;;;;;;;7.63;5.60;;;22.70;61.00;;;;;;5087759;28;20228;-72
2021/05/15 09:17:46;;;;;;;6.70;6.00;;;22.80;60.00;;;;;;5102699;28;20221;-72
2021/05/15 09:20:25;;;;;;;9.33;6.67;;;22.80;60.00;;;;;;5100092;28;20223;-73
2021/05/15 09:22:53;;;;;;;6.67;5.60;;;22.90;59.50;;;;;;5097962;28;20623;-73
2021/05/15 09:25:21;;;;;;;7.03;6.43;;;23.00;59.20;;;;;;5099927;28;20561;-73
2021/05/15 09:27:48;;;;;;;8.37;6.87;;;23.10;59.10;;;;;;5096399;28;20213;-72
2021/05/15 09:30:16;;;;;;;7.93;6.97;;;23.20;59.00;;;;;;5087810;28;20208;-72
2021/05/15 09:32:44;;;;;;;6.20;5.27;;;23.40;58.80;;;;;;5098997;28;20209;-72
2021/05/15 09:35:22;;;;;;;9.43;6.20;;;23.40;58.40;;;;;;5104601;28;20549;-72
2021/05/15 09:37:50;;;;;;;6.87;5.90;;;23.40;56.90;;;;;;5103314;28;20223;-72
2021/05/15 09:40:24;;;;;;;8.73;6.87;;;23.40;58.10;;;;;;5079607;28;20205;-72
2021/05/15 09:43:07;;;;;;;7.93;6.27;;;23.50;58.40;;;;;;5099155;28;20213;-72
2021/05/15 09:45:37;;;;;;;6.50;5.33;;;23.60;58.50;;;;;;5086008;28;20277;-72
2021/05/15 09:48:08;;;;;;;5.80;5.20;;;23.80;58.50;;;;;;5102545;28;20216;-72
2021/05/15 09:50:40;;;;;;;6.27;5.47;;;23.90;57.30;;;;;;5095310;28;20604;-72
2021/05/15 09:53:07;;;;;;;7.60;6.00;;;24.00;55.40;;;;;;5102242;28;20208;-72
2021/05/15 09:55:34;;;;;;;6.60;5.97;;;23.90;55.00;;;;;;5083843;28;20220;-72
2021/05/15 09:58:06;;;;;;;6.33;5.73;;;23.90;55.10;;;;;;5102089;28;20208;-72
2021/05/15 10:00:40;;;;;;;5.67;5.10;;;24.10;55.20;;;;;;5084258;28;20243;-73
2021/05/15 10:03:20;;;;;;;6.27;5.63;;;24.20;54.50;;;;;;5079675;28;20590;-72
2021/05/15 10:06:17;;;;;;;8.53;5.60;;;24.30;53.50;;;;;;5100874;28;20288;-72
2021/05/15 10:08:44;;;;;;;5.73;4.93;;;24.30;54.50;;;;;;5004211;28;20231;-72
2021/05/15 10:11:11;;;;;;;5.63;5.20;;;24.30;54.70;;;;;;5001881;28;20223;-72
2021/05/15 10:13:40;;;;;;;6.90;5.83;;;24.30;53.60;;;;;;4985517;28;20218;-72
2021/05/15 10:16:08;;;;;;;4.87;4.37;;;24.30;53.40;;;;;;5001047;28;20216;-71
2021/05/15 10:18:38;;;;;;;7.17;6.10;;;24.10;52.50;;;;;;4984613;28;20347;-73
2021/05/15 10:21:05;;;;;;;7.97;5.40;;;24.10;54.10;;;;;;5001252;28;20248;-72
2021/05/15 10:23:42;;;;;;;5.97;5.30;;;24.30;54.70;;;;;;5001649;28;20204;-73
2021/05/15 10:26:15;;;;;;;10.63;5.67;;;24.40;54.30;;;;;;5044543;28;20758;-73
2021/05/15 10:28:44;;;;;;;5.37;4.87;;;24.60;53.40;;;;;;5077257;28;20589;-72
2021/05/15 10:31:15;;;;;;;6.43;5.20;;;24.80;52.80;;;;;;5083873;28;20217;-72
2021/05/15 10:33:46;;;;;;;5.87;3.87;;;24.80;52.30;;;;;;5062854;28;20212;-72
2021/05/15 10:36:21;;;;;;;5.17;4.23;;;24.80;52.30;;;;;;5082040;28;20217;-72
2021/05/15 10:38:51;;;;;;;7.73;4.17;;;24.90;51.00;;;;;;5063233;28;20232;-72
2021/05/15 10:41:20;;;;;;;6.03;4.30;;;24.90;51.50;;;;;;5064904;28;20220;-72
2021/05/15 10:43:49;;;;;;;5.67;4.30;;;25.00;52.10;;;;;;5079950;28;20212;-72
2021/05/15 10:46:31;;;;;;;5.00;4.53;;;25.00;51.50;;;;;;5062375;28;20220;-72
2021/05/15 10:48:59;;;;;;;8.00;4.53;;;25.10;49.10;;;;;;5048483;28;20214;-72
2021/05/15 10:51:46;;;;;;;4.97;4.33;;;25.00;49.30;;;;;;5082094;28;20216;-72
2021/05/15 10:54:16;;;;;;;5.10;4.50;;;24.90;51.20;;;;;;5073310;28;20214;-72
2021/05/15 10:56:49;;;;;;;6.67;4.27;;;24.90;51.70;;;;;;5082348;28;20217;-72
2021/05/15 10:59:21;;;;;;;4.77;3.90;;;25.00;52.40;;;;;;5062854;28;20234;-72
2021/05/15 11:01:57;;;;;;;5.07;4.20;;;25.00;51.00;;;;;;5083994;28;20208;-72
2021/05/15 11:04:31;;;;;;;7.53;5.00;;;25.00;50.80;;;;;;5086502;28;20217;-72
2021/05/15 11:07:09;;;;;;;4.80;4.30;;;25.00;49.20;;;;;;5072883;28;20241;-72
2021/05/15 11:10:01;;;;;;;6.83;4.87;;;24.80;49.40;;;;;;5077959;28;20208;-72
2021/05/15 11:12:39;;;;;;;5.43;4.80;;;24.50;50.40;;;;;;5076061;28;20213;-72
2021/05/15 11:15:18;;;;;;;3.50;3.20;;;24.40;50.70;;;;;;5080671;28;20235;-72
2021/05/15 11:18:05;;;;;;;3.30;3.00;;;24.40;51.80;;;;;;5077670;28;20206;-72
2021/05/15 11:20:47;;;;;;;3.60;2.50;;;24.60;51.00;;;;;;5081365;28;20221;-72
2021/05/15 11:23:19;;;;;;;4.13;2.50;;;24.80;50.70;;;;;;5077527;28;20634;-72
2021/05/15 11:25:58;;;;;;;3.60;3.30;;;24.90;49.30;;;;;;5059153;28;20628;-72
2021/05/15 11:28:27;;;;;;;4.23;3.60;;;25.00;49.80;;;;;;5063962;28;20296;-73
2021/05/15 11:30:55;;;;;;;5.70;3.27;;;25.10;48.20;;;;;;5066381;28;20216;-73
2021/05/15 11:33:24;;;;;;;4.50;3.33;;;25.20;49.10;;;;;;5085942;28;20214;-72
2021/05/15 11:35:56;;;;;;;4.27;3.87;;;25.30;49.70;;;;;;5088593;28;20562;-72
2021/05/15 11:38:25;;;;;;;5.33;3.50;;;25.20;49.30;;;;;;5082318;28;20236;-72
2021/05/15 11:40:56;;;;;;;4.97;4.00;;;25.20;49.30;;;;;;5081253;28;20222;-73
2021/05/15 11:43:28;;;;;;;5.40;4.03;;;25.20;49.10;;;;;;5085922;28;20209;-72
2021/05/15 11:45:56;;;;;;;4.87;3.40;;;25.20;49.20;;;;;;5072094;28;20284;-72
2021/05/15 11:48:27;;;;;;;4.20;3.50;;;25.00;50.00;;;;;;5071449;28;20689;-72
2021/05/15 11:50:58;;;;;;;5.80;3.80;;;24.90;50.70;;;;;;5085303;28;20201;-72
2021/05/15 11:53:26;;;;;;;4.70;4.30;;;25.00;49.20;;;;;;5087170;28;20218;-72
2021/05/15 11:55:54;;;;;;;4.77;3.50;;;24.90;49.80;;;;;;5062871;28;20494;-72
2021/05/15 11:58:22;;;;;;;5.33;3.57;;;25.00;50.40;;;;;;5086154;28;20209;-72
2021/05/15 12:00:49;;;;;;;4.60;3.77;;;25.10;49.50;;;;;;5087528;28;20229;-72
2021/05/15 12:03:24;;;;;;;6.93;3.90;;;25.20;49.40;;;;;;5086789;28;20214;-72
2021/05/15 12:05:52;;;;;;;4.90;4.00;;;25.40;49.10;;;;;;5087805;28;20228;-72
2021/05/15 12:08:20;;;;;;;4.60;4.00;;;25.40;49.30;;;;;;5088313;28;20216;-72
2021/05/15 12:10:48;;;;;;;4.17;3.33;;;25.30;48.60;;;;;;5087602;28;20219;-72
2021/05/15 12:13:16;;;;;;;5.53;3.40;;;24.80;49.70;;;;;;5062376;28;20218;-72
2021/05/15 12:15:52;;;;;;;3.70;3.40;;;24.40;50.60;;;;;;5078056;28;20202;-73
2021/05/15 12:18:19;;;;;;;5.27;3.77;;;24.20;50.50;;;;;;5082979;28;20227;-73
2021/05/15 12:20:49;;;;;;;4.83;4.33;;;24.30;51.40;;;;;;5062770;28;20320;-73
2021/05/15 12:23:21;;;;;;;5.00;3.13;;;24.20;51.80;;;;;;5103810;28;20282;-73
2021/05/15 12:26:16;;;;;;;5.20;3.97;;;24.10;51.20;;;;;;5100983;28;20231;-73
2021/05/15 12:28:48;;;;;;;4.20;3.80;;;24.20;48.40;;;;;;5091851;28;20538;-73
2021/05/15 12:31:24;;;;;;;5.80;3.60;;;24.00;48.20;;;;;;5106939;28;20752;-72
2021/05/15 12:33:52;;;;;;;3.20;2.83;;;23.90;48.50;;;;;;5102956;28;20220;-72
2021/05/15 12:36:20;;;;;;;4.73;3.60;;;23.90;50.70;;;;;;5106945;28;20585;-73
2021/05/15 12:38:51;;;;;;;5.70;3.60;;;24.20;49.50;;;;;;5085322;28;20645;-73
2021/05/15 12:41:19;;;;;;;4.80;2.90;;;24.30;48.30;;;;;;5100326;28;20267;-73
2021/05/15 12:43:47;;;;;;;4.20;3.80;;;24.40;49.60;;;;;;5106865;28;20245;-73
2021/05/15 12:46:17;;;;;;;3.80;2.97;;;24.40;49.00;;;;;;5107622;28;20219;-73
2021/05/15 12:48:59;;;;;;;2.43;2.30;;;24.50;49.60;;;;;;5104277;28;20213;-74
2021/05/15 12:51:31;;;;;;;3.07;2.70;;;24.60;49.70;;;;;;5104037;28;20214;-73